Terminal Aerodrome Forecast
Issued by NWS

Home | Current Version | Previous Version | Text Only | Print | Product List | Glossary On
Versions: 1 2 3 4 5 6 7 8 9 10 11 12 13 14 15 16 17 18 19 20 21 22 23 24 25 26 27 28
000
FTUS46 KMTR 302300
TAFSFO
TAF
KSFO 302325Z 3100/0106 29020KT P6SM FEW007
     FM310400 29010KT P6SM FEW010
     FM311000 29005KT P6SM FEW005
     FM311600 03005KT P6SM FEW008
     FM312100 30018KT P6SM FEW009
     FM010400 29012KT P6SM FEW250=

USA.gov is the U.S. government's official web portal to all federal, state and local government web resources and services.